Time;durP1;ratioP1;P1;durP2;ratioP2;P2;SDS_P1;SDS_P2;PMS_P1;PMS_P2;Temp;Humidity;BMP_temperature;BMP_pressure;BME280_temperature;BME280_humidity;BME280_pressure;Samples;Min_cycle;Max_cycle;Signal;HPM_P1;HPM_P2
2023/10/30 00:01:39;;;;;;;;;;;1.70;99.90;;;;;;5024066;28;19909;-82
2023/10/30 00:04:05;;;;;;;;;;;1.70;99.90;;;;;;4997183;28;19932;-82
2023/10/30 00:06:32;;;;;;;;;;;1.80;99.90;;;;;;5005550;28;20277;-83
2023/10/30 00:08:57;;;;;;;;;;;1.70;99.90;;;;;;5020426;28;20318;-82
2023/10/30 00:11:23;;;;;;;;;;;1.70;99.90;;;;;;5022539;28;19912;-82
2023/10/30 00:13:49;;;;;;;;;;;1.80;99.90;;;;;;5021685;28;19924;-82
2023/10/30 00:16:15;;;;;;;;;;;1.80;99.90;;;;;;5024793;28;19913;-82
2023/10/30 00:18:41;;;;;;;;;;;1.70;99.90;;;;;;5030400;28;19909;-82
2023/10/30 00:21:11;;;;;;;;;;;1.80;99.90;;;;;;5026732;28;19912;-82
2023/10/30 00:23:36;;;;;;;;;;;1.70;99.90;;;;;;5028945;28;19905;-84
2023/10/30 00:26:03;;;;;;;;;;;1.70;99.90;;;;;;5028190;28;20277;-82
2023/10/30 00:28:30;;;;;;;;;;;1.70;99.90;;;;;;5028959;28;19909;-85
2023/10/30 00:30:56;;;;;;;;;;;1.70;99.90;;;;;;5025680;28;19909;-84
2023/10/30 00:33:21;;;;;;;;;;;1.70;99.90;;;;;;5028947;28;19909;-83
2023/10/30 00:35:47;;;;;;;;;;;1.70;99.90;;;;;;5031888;28;19912;-83
2023/10/30 00:38:13;;;;;;;;;;;1.70;99.90;;;;;;5031392;28;19996;-83
2023/10/30 00:40:38;;;;;;;;;;;1.80;99.90;;;;;;5052443;28;19979;-85
2023/10/30 00:43:04;;;;;;;;;;;1.80;99.90;;;;;;5021376;28;19909;-84
2023/10/30 00:45:30;;;;;;;;;;;1.80;99.90;;;;;;5005025;28;19910;-84
2023/10/30 00:47:56;;;;;;;;;;;1.80;99.90;;;;;;5024781;28;19905;-84
2023/10/30 00:50:21;;;;;;;;;;;1.80;99.90;;;;;;5032702;28;19913;-83
2023/10/30 00:52:47;;;;;;;;;;;1.80;99.90;;;;;;5003777;28;19905;-82
2023/10/30 00:55:13;;;;;;;;;;;1.80;99.90;;;;;;4997596;28;19905;-83
2023/10/30 00:57:39;;;;;;;;;;;1.80;99.90;;;;;;5017571;28;19909;-82
2023/10/30 01:00:05;;;;;;;;;;;1.70;99.90;;;;;;5019351;28;19905;-83
2023/10/30 01:02:31;;;;;;;;;;;1.80;99.90;;;;;;5026882;28;20396;-82
2023/10/30 01:04:57;;;;;;;;;;;1.80;99.90;;;;;;5042200;28;19905;-83
2023/10/30 01:07:23;;;;;;;;;;;1.70;99.90;;;;;;4999669;28;19906;-83
2023/10/30 01:09:49;;;;;;;;;;;1.70;99.90;;;;;;5023093;28;19959;-83
2023/10/30 01:12:14;;;;;;;;;;;1.70;99.90;;;;;;5036243;28;20358;-83
2023/10/30 01:14:40;;;;;;;;;;;1.70;99.90;;;;;;5020251;28;20028;-83
2023/10/30 01:17:06;;;;;;;;;;;1.70;99.90;;;;;;5013323;28;19909;-83
2023/10/30 01:19:31;;;;;;;;;;;1.70;99.90;;;;;;4999783;28;19910;-83
2023/10/30 01:21:57;;;;;;;;;;;1.80;99.90;;;;;;5013513;28;19996;-83
2023/10/30 01:24:23;;;;;;;;;;;1.70;99.90;;;;;;4998732;28;19906;-83
2023/10/30 01:26:48;;;;;;;;;;;1.80;99.90;;;;;;4997323;28;19909;-83
2023/10/30 01:29:14;;;;;;;;;;;1.80;99.90;;;;;;5020463;28;19917;-83
2023/10/30 01:31:40;;;;;;;;;;;1.80;99.90;;;;;;5019574;28;20290;-87
2023/10/30 01:34:05;;;;;;;;;;;1.80;99.90;;;;;;5021432;28;19952;-84
2023/10/30 01:36:31;;;;;;;;;;;1.80;99.90;;;;;;5023306;28;20424;-86
2023/10/30 01:38:58;;;;;;;;;;;1.70;99.90;;;;;;5003539;28;19993;-86
2023/10/30 01:41:23;;;;;;;;;;;1.70;99.90;;;;;;5004133;28;20755;-85
2023/10/30 01:43:49;;;;;;;;;;;1.70;99.70;;;;;;5021558;28;20077;-85
2023/10/30 01:46:15;;;;;;;;;;;1.70;99.70;;;;;;5026618;28;19995;-84
2023/10/30 01:48:41;;;;;;;;;;;1.70;99.80;;;;;;5028205;28;19909;-87
2023/10/30 01:51:07;;;;;;;;;;;1.70;99.80;;;;;;5034549;28;19905;-84
2023/10/30 01:53:33;;;;;;;;;;;1.70;99.80;;;;;;5024020;28;19910;-84
2023/10/30 01:56:01;;;;;;;;;;;1.70;99.80;;;;;;5037874;28;19905;-84
2023/10/30 01:58:26;;;;;;;;;;;1.70;99.70;;;;;;5019704;28;19999;-84
2023/10/30 02:00:53;;;;;;;;;;;1.60;99.40;;;;;;5005643;28;20385;-85
2023/10/30 02:03:19;;;;;;;;;;;1.50;99.40;;;;;;5015490;28;19909;-84
2023/10/30 02:05:44;;;;;;;;;;;1.50;99.50;;;;;;5051966;28;20407;-86
2023/10/30 02:08:11;;;;;;;;;;;1.50;99.60;;;;;;5023652;28;19917;-85
2023/10/30 02:10:36;;;;;;;;;;;1.50;99.70;;;;;;5024419;28;20298;-85
2023/10/30 02:13:09;;;;;;;;;;;1.60;99.70;;;;;;5045667;28;19977;-86
2023/10/30 02:15:34;;;;;;;;;;;1.60;99.60;;;;;;5003257;28;19921;-84
2023/10/30 02:18:00;;;;;;;;;;;1.60;99.60;;;;;;5025374;28;20280;-82
2023/10/30 02:20:26;;;;;;;;;;;1.60;99.60;;;;;;5005010;28;20008;-84
2023/10/30 02:22:52;;;;;;;;;;;1.70;99.70;;;;;;5001559;28;19905;-84
2023/10/30 02:25:18;;;;;;;;;;;1.70;99.70;;;;;;5021417;28;20260;-83
2023/10/30 02:27:44;;;;;;;;;;;1.80;99.70;;;;;;5018837;28;19913;-84
2023/10/30 02:30:11;;;;;;;;;;;1.80;99.60;;;;;;5024378;28;19924;-84
2023/10/30 02:32:42;;;;;;;;;;;1.80;99.60;;;;;;5017726;28;19905;-84
2023/10/30 02:35:15;;;;;;;;;;;1.80;99.40;;;;;;5017904;28;20252;-81
2023/10/30 02:37:41;;;;;;;;;;;1.70;99.30;;;;;;5024887;28;20043;-82
2023/10/30 02:40:07;;;;;;;;;;;1.70;99.30;;;;;;5016745;28;19941;-82
2023/10/30 02:42:33;;;;;;;;;;;1.70;99.40;;;;;;5021060;28;19905;-82
2023/10/30 02:44:59;;;;;;;;;;;1.70;99.40;;;;;;5019046;28;19909;-82
2023/10/30 02:47:25;;;;;;;;;;;1.70;99.40;;;;;;5022865;28;19911;-82
2023/10/30 02:49:50;;;;;;;;;;;1.70;99.50;;;;;;5020229;28;19971;-82
2023/10/30 02:52:17;;;;;;;;;;;1.80;99.40;;;;;;5022590;28;20378;-82
2023/10/30 02:54:46;;;;;;;;;;;1.70;99.30;;;;;;5031712;28;19960;-83
2023/10/30 02:57:13;;;;;;;;;;;1.70;99.10;;;;;;5031747;28;19909;-82
2023/10/30 02:59:39;;;;;;;;;;;1.70;99.10;;;;;;5030475;28;20357;-82
2023/10/30 03:02:04;;;;;;;;;;;1.70;99.20;;;;;;5011880;28;19909;-82
2023/10/30 03:04:30;;;;;;;;;;;1.70;99.30;;;;;;5021817;28;19905;-83
2023/10/30 03:06:58;;;;;;;;;;;1.70;99.40;;;;;;5016837;28;20047;-82
2023/10/30 03:09:27;;;;;;;;;;;1.70;99.30;;;;;;5002346;28;19944;-82
2023/10/30 03:11:53;;;;;;;;;;;1.70;99.10;;;;;;5022192;28;20314;-83
2023/10/30 03:14:18;;;;;;;;;;;1.70;99.00;;;;;;5019405;28;19913;-82
2023/10/30 03:16:44;;;;;;;;;;;1.70;98.80;;;;;;5001994;28;19913;-83
2023/10/30 03:19:09;;;;;;;;;;;1.70;98.70;;;;;;5017316;28;19960;-82
2023/10/30 03:21:35;;;;;;;;;;;1.60;98.60;;;;;;5023729;28;19911;-82
2023/10/30 03:24:02;;;;;;;;;;;1.60;98.60;;;;;;5017912;28;19916;-84
2023/10/30 03:26:27;;;;;;;;;;;1.60;98.70;;;;;;5021387;28;20208;-84
2023/10/30 03:28:53;;;;;;;;;;;1.70;98.80;;;;;;5006717;28;19924;-83
2023/10/30 03:31:18;;;;;;;;;;;1.70;98.90;;;;;;5020145;28;20008;-83
2023/10/30 03:33:44;;;;;;;;;;;1.70;98.80;;;;;;5025359;28;19905;-83
2023/10/30 03:36:10;;;;;;;;;;;1.80;98.80;;;;;;5024441;28;19945;-81
2023/10/30 03:38:35;;;;;;;;;;;1.80;98.80;;;;;;5002903;28;19905;-83
2023/10/30 03:41:01;;;;;;;;;;;1.90;98.90;;;;;;5015572;28;19906;-83
2023/10/30 03:43:27;;;;;;;;;;;1.90;98.80;;;;;;5018731;28;19905;-82
2023/10/30 03:45:52;;;;;;;;;;;1.80;98.60;;;;;;5038582;28;19905;-82
2023/10/30 03:48:18;;;;;;;;;;;1.80;98.60;;;;;;5024033;28;20414;-82
2023/10/30 03:50:43;;;;;;;;;;;1.80;98.60;;;;;;5023062;28;20374;-84
2023/10/30 03:53:09;;;;;;;;;;;1.80;98.50;;;;;;5023261;28;20334;-82
2023/10/30 03:55:35;;;;;;;;;;;1.80;98.40;;;;;;5028615;28;20032;-84
2023/10/30 03:58:02;;;;;;;;;;;1.80;98.30;;;;;;5021450;28;20326;-82
2023/10/30 04:00:28;;;;;;;;;;;1.70;98.20;;;;;;5028610;28;19955;-83
2023/10/30 04:02:53;;;;;;;;;;;1.60;98.20;;;;;;5033135;28;19909;-83
2023/10/30 04:05:19;;;;;;;;;;;1.50;98.40;;;;;;5021023;28;20366;-84
2023/10/30 04:07:45;;;;;;;;;;;1.50;98.50;;;;;;5014889;28;19909;-83
2023/10/30 04:10:11;;;;;;;;;;;1.50;98.50;;;;;;5014258;28;20432;-84
2023/10/30 04:12:36;;;;;;;;;;;1.40;98.40;;;;;;5015494;28;19940;-82
2023/10/30 04:15:02;;;;;;;;;;;1.40;98.60;;;;;;5020381;28;19963;-83
2023/10/30 04:17:28;;;;;;;;;;;1.30;98.80;;;;;;5016570;28;20056;-84
2023/10/30 04:19:53;;;;;;;;;;;1.20;99.20;;;;;;5016794;28;19979;-82
2023/10/30 04:22:19;;;;;;;;;;;0.90;99.80;;;;;;5017132;28;19909;-82
2023/10/30 04:24:45;;;;;;;;;;;0.80;99.90;;;;;;5020889;28;19996;-84
2023/10/30 04:27:10;;;;;;;;;;;0.70;99.90;;;;;;5021271;28;19909;-84
2023/10/30 04:29:36;;;;;;;;;;;0.60;99.90;;;;;;5000658;28;20267;-84
2023/10/30 04:32:02;;;;;;;;;;;0.60;99.90;;;;;;5022439;28;19999;-84
2023/10/30 04:34:28;;;;;;;;;;;0.50;99.90;;;;;;5019366;28;19933;-83
2023/10/30 04:36:54;;;;;;;;;;;0.50;99.90;;;;;;5019934;28;20298;-83
2023/10/30 04:39:20;;;;;;;;;;;0.40;99.90;;;;;;5014416;28;19952;-85
2023/10/30 04:41:45;;;;;;;;;;;0.40;99.90;;;;;;5005882;28;20342;-85
2023/10/30 04:44:11;;;;;;;;;;;0.40;99.90;;;;;;5038752;28;19909;-85
2023/10/30 04:46:37;;;;;;;;;;;0.40;99.90;;;;;;5041558;28;19946;-83
2023/10/30 04:49:02;;;;;;;;;;;0.40;99.90;;;;;;5029022;28;19959;-85
2023/10/30 04:51:28;;;;;;;;;;;0.40;99.90;;;;;;5006874;28;19906;-84
2023/10/30 04:53:54;;;;;;;;;;;0.40;99.90;;;;;;5026313;28;19915;-84
2023/10/30 04:56:19;;;;;;;;;;;0.40;99.90;;;;;;5027950;28;19956;-85
2023/10/30 04:58:45;;;;;;;;;;;0.40;99.90;;;;;;5012998;28;20318;-84
2023/10/30 05:01:12;;;;;;;;;;;0.40;99.90;;;;;;5014991;28;20003;-85
2023/10/30 05:03:39;;;;;;;;;;;0.40;99.90;;;;;;5001016;28;19905;-84
2023/10/30 05:06:05;;;;;;;;;;;0.40;99.90;;;;;;5021032;28;20290;-83
2023/10/30 05:08:30;;;;;;;;;;;0.30;99.90;;;;;;5013319;28;20004;-82
2023/10/30 05:10:56;;;;;;;;;;;0.20;99.90;;;;;;5013795;28;20361;-83
2023/10/30 05:13:22;;;;;;;;;;;0.20;99.90;;;;;;5012652;28;19905;-82
2023/10/30 05:15:48;;;;;;;;;;;0.20;99.90;;;;;;5021234;28;19952;-82
2023/10/30 05:18:17;;;;;;;;;;;0.20;99.90;;;;;;5017608;28;20047;-83
2023/10/30 05:20:43;;;;;;;;;;;0.20;99.90;;;;;;5018689;28;20330;-83
2023/10/30 05:23:08;;;;;;;;;;;0.20;99.90;;;;;;5015043;28;19952;-84
2023/10/30 05:25:34;;;;;;;;;;;0.10;99.90;;;;;;5015458;28;20058;-83
2023/10/30 05:27:59;;;;;;;;;;;0.10;99.90;;;;;;5013033;28;19906;-83
2023/10/30 05:30:25;;;;;;;;;;;0.10;99.90;;;;;;5021289;28;19925;-86
2023/10/30 05:32:51;;;;;;;;;;;0.10;99.90;;;;;;5006025;28;19964;-83
2023/10/30 05:35:19;;;;;;;;;;;0.10;99.90;;;;;;4996246;28;19909;-84
2023/10/30 05:37:45;;;;;;;;;;;0.00;99.90;;;;;;5000828;28;19905;-83
2023/10/30 05:40:11;;;;;;;;;;;0.10;99.90;;;;;;5018119;28;19909;-84
2023/10/30 05:42:36;;;;;;;;;;;0.10;99.90;;;;;;4994319;28;19905;-83
2023/10/30 05:45:02;;;;;;;;;;;0.10;99.90;;;;;;5014840;28;20314;-83
2023/10/30 05:47:28;;;;;;;;;;;0.10;99.90;;;;;;5007927;28;19909;-82
2023/10/30 05:49:54;;;;;;;;;;;0.10;99.90;;;;;;5015590;28;19917;-83
2023/10/30 05:52:19;;;;;;;;;;;0.10;99.90;;;;;;5016418;28;20231;-85
2023/10/30 05:54:45;;;;;;;;;;;0.20;99.90;;;;;;5012923;28;20344;-85
2023/10/30 05:57:11;;;;;;;;;;;0.20;99.90;;;;;;5021277;28;19920;-82
2023/10/30 05:59:36;;;;;;;;;;;0.20;99.90;;;;;;5019948;28;19905;-83
2023/10/30 06:02:02;;;;;;;;;;;0.20;99.90;;;;;;5019129;28;19905;-83
2023/10/30 06:04:28;;;;;;;;;;;0.20;99.90;;;;;;5014345;28;19905;-84
2023/10/30 06:06:54;;;;;;;;;;;0.20;99.90;;;;;;5014499;28;19916;-82
2023/10/30 06:09:19;;;;;;;;;;;0.20;99.90;;;;;;5014387;28;20036;-81
2023/10/30 06:11:48;;;;;;;;;;;0.20;99.90;;;;;;4998751;28;19932;-83
2023/10/30 06:14:14;;;;;;;;;;;0.20;99.90;;;;;;5039725;28;20252;-82
2023/10/30 06:16:40;;;;;;;;;;;0.20;99.90;;;;;;5010736;28;20269;-83
2023/10/30 06:19:06;;;;;;;;;;;0.20;99.90;;;;;;5022502;28;19905;-84
2023/10/30 06:21:32;;;;;;;;;;;0.20;99.90;;;;;;5035286;28;19927;-82
2023/10/30 06:26:43;;;;;;;;;;;0.20;99.90;;;;;;5017031;28;19910;-82
2023/10/30 06:29:12;;;;;;;;;;;0.20;99.90;;;;;;5006388;28;19987;-81
2023/10/30 06:31:42;;;;;;;;;;;0.20;99.90;;;;;;5026606;28;20368;-81
2023/10/30 06:34:10;;;;;;;;;;;0.30;99.90;;;;;;5015969;28;19905;-83
2023/10/30 06:36:38;;;;;;;;;;;0.20;99.90;;;;;;5001462;28;19905;-84
2023/10/30 06:39:04;;;;;;;;;;;0.20;99.90;;;;;;5017552;28;19913;-83
2023/10/30 06:41:30;;;;;;;;;;;0.20;99.90;;;;;;5018147;28;19951;-84
2023/10/30 06:43:56;;;;;;;;;;;0.30;99.90;;;;;;5018981;28;20360;-84
2023/10/30 06:46:22;;;;;;;;;;;0.20;99.90;;;;;;5017646;28;19945;-85
2023/10/30 06:48:47;;;;;;;;;;;0.30;99.90;;;;;;5021651;28;19897;-87
2023/10/30 06:51:13;;;;;;;;;;;0.20;99.90;;;;;;5024207;28;19905;-86
2023/10/30 06:53:39;;;;;;;;;;;0.20;99.90;;;;;;5016084;28;20321;-85
2023/10/30 06:56:04;;;;;;;;;;;0.20;99.90;;;;;;5020766;28;20282;-85
2023/10/30 06:58:30;;;;;;;;;;;0.20;99.90;;;;;;5027270;28;19916;-86
2023/10/30 07:01:02;;;;;;;;;;;0.30;99.90;;;;;;5019697;28;19906;-84
2023/10/30 07:03:28;;;;;;;;;;;0.30;99.90;;;;;;5003218;28;20385;-84
2023/10/30 07:05:54;;;;;;;;;;;0.30;99.90;;;;;;5037177;28;20003;-86
2023/10/30 07:08:20;;;;;;;;;;;0.30;99.90;;;;;;5035958;28;19912;-86
2023/10/30 07:10:45;;;;;;;;;;;0.30;99.90;;;;;;5035853;28;19913;-85
2023/10/30 07:13:11;;;;;;;;;;;0.30;99.90;;;;;;5035637;28;19905;-86
2023/10/30 07:15:36;;;;;;;;;;;0.20;99.90;;;;;;5037124;28;20267;-86
2023/10/30 07:18:02;;;;;;;;;;;0.30;99.90;;;;;;5034728;28;19909;-85
2023/10/30 07:20:28;;;;;;;;;;;0.30;99.90;;;;;;5017583;28;19905;-84
2023/10/30 07:22:53;;;;;;;;;;;0.30;99.90;;;;;;5036174;28;20039;-84
2023/10/30 07:25:20;;;;;;;;;;;0.30;99.90;;;;;;5011245;28;20370;-85
2023/10/30 07:27:46;;;;;;;;;;;0.30;99.90;;;;;;5019779;28;19911;-84
2023/10/30 07:30:12;;;;;;;;;;;0.30;99.90;;;;;;5018454;28;19917;-87
2023/10/30 07:32:38;;;;;;;;;;;0.30;99.90;;;;;;5017704;28;19952;-86
2023/10/30 07:35:04;;;;;;;;;;;0.20;99.90;;;;;;5034165;28;19909;-85
2023/10/30 07:37:33;;;;;;;;;;;0.30;99.90;;;;;;5022781;28;20005;-86
2023/10/30 07:40:08;;;;;;;;;;;0.20;99.90;;;;;;5015059;28;19960;-86
2023/10/30 07:46:00;;;;;;;;;;;;;;;;;;;;;
2023/10/30 07:48:50;;;;;;;;;;;0.30;99.90;;;;;;4976347;28;20001;-87
2023/10/30 07:51:46;;;;;;;;;;;0.20;99.90;;;;;;4961857;28;19914;-88
2023/10/30 07:57:16;;;;;;;;;;;;;;;;;;;;;
2023/10/30 07:59:52;;;;;;;;;;;0.20;99.90;;;;;;4975486;28;20050;-89
2023/10/30 08:02:18;;;;;;;;;;;0.30;99.90;;;;;;4953694;28;20392;-91
2023/10/30 08:04:44;;;;;;;;;;;0.20;99.90;;;;;;4954630;28;19929;-88
2023/10/30 08:07:10;;;;;;;;;;;0.30;99.90;;;;;;4974062;28;19913;-87
2023/10/30 08:09:36;;;;;;;;;;;0.30;99.90;;;;;;4974114;28;20027;-87
2023/10/30 08:12:02;;;;;;;;;;;0.30;99.90;;;;;;4958461;28;19919;-88
2023/10/30 08:14:28;;;;;;;;;;;0.30;99.90;;;;;;4953708;28;19974;-86
2023/10/30 08:16:54;;;;;;;;;;;0.30;99.90;;;;;;4977559;28;19945;-86
2023/10/30 08:19:20;;;;;;;;;;;0.30;99.90;;;;;;4968027;28;19918;-87
2023/10/30 08:21:45;;;;;;;;;;;0.30;99.90;;;;;;4966893;28;19916;-86
2023/10/30 08:24:11;;;;;;;;;;;0.30;99.90;;;;;;5027151;28;20004;-87
2023/10/30 08:26:37;;;;;;;;;;;0.30;99.90;;;;;;5007879;28;19905;-86
2023/10/30 08:29:02;;;;;;;;;;;0.40;99.90;;;;;;5019141;28;19905;-87
2023/10/30 08:31:28;;;;;;;;;;;0.40;99.90;;;;;;5020086;28;19912;-87
2023/10/30 08:33:56;;;;;;;;;;;0.40;99.90;;;;;;5012489;28;20055;-86
2023/10/30 08:36:22;;;;;;;;;;;0.40;99.90;;;;;;5010428;28;19924;-86
2023/10/30 08:38:48;;;;;;;;;;;0.40;99.90;;;;;;5016799;28;19941;-86
2023/10/30 08:41:17;;;;;;;;;;;0.40;99.90;;;;;;5010367;28;20652;-88
2023/10/30 08:43:43;;;;;;;;;;;0.50;99.90;;;;;;5000485;28;19916;-87
2023/10/30 08:46:15;;;;;;;;;;;0.50;99.90;;;;;;4998009;28;19964;-88
2023/10/30 08:48:40;;;;;;;;;;;0.50;99.90;;;;;;4997870;28;19909;-90
2023/10/30 08:51:07;;;;;;;;;;;0.60;99.90;;;;;;5006779;28;19917;-86
2023/10/30 08:53:34;;;;;;;;;;;0.60;99.90;;;;;;5017415;28;20043;-88
2023/10/30 08:56:00;;;;;;;;;;;0.70;99.90;;;;;;5019307;28;20008;-87
2023/10/30 08:58:26;;;;;;;;;;;0.70;99.90;;;;;;5034985;28;19967;-86
2023/10/30 09:00:51;;;;;;;;;;;0.70;99.90;;;;;;5037295;28;19905;-85
2023/10/30 09:03:17;;;;;;;;;;;0.70;99.90;;;;;;5048140;28;19912;-84
2023/10/30 09:05:43;;;;;;;;;;;0.60;99.90;;;;;;5029690;28;20051;-85
2023/10/30 09:08:08;;;;;;;;;;;0.70;99.90;;;;;;5013746;28;20064;-86
2023/10/30 09:10:34;;;;;;;;;;;0.70;99.90;;;;;;4996190;28;19921;-85
2023/10/30 09:13:00;;;;;;;;;;;0.70;99.90;;;;;;5014473;28;19914;-86
2023/10/30 09:15:28;;;;;;;;;;;0.70;99.90;;;;;;4997851;28;19917;-88
2023/10/30 09:17:54;;;;;;;;;;;0.80;99.90;;;;;;5015206;28;20035;-85
2023/10/30 09:20:20;;;;;;;;;;;0.80;99.90;;;;;;4997282;28;20335;-85
2023/10/30 09:22:45;;;;;;;;;;;0.80;99.90;;;;;;5016666;28;20363;-87
2023/10/30 09:25:11;;;;;;;;;;;0.80;99.90;;;;;;4997147;28;19910;-87
2023/10/30 09:27:38;;;;;;;;;;;0.80;99.90;;;;;;5014857;28;19917;-84
2023/10/30 09:30:04;;;;;;;;;;;0.90;99.90;;;;;;5025526;28;19917;-84
2023/10/30 09:32:30;;;;;;;;;;;0.90;99.90;;;;;;5015716;28;20383;-85
2023/10/30 09:34:56;;;;;;;;;;;0.90;99.90;;;;;;5015688;28;20008;-85
2023/10/30 09:37:22;;;;;;;;;;;1.00;99.90;;;;;;5019863;28;19905;-87
2023/10/30 09:39:48;;;;;;;;;;;1.00;99.90;;;;;;5005876;28;19906;-90
2023/10/30 09:42:14;;;;;;;;;;;1.00;99.90;;;;;;5019413;28;19959;-85
2023/10/30 09:44:40;;;;;;;;;;;1.00;99.90;;;;;;4998656;28;19906;-88
2023/10/30 09:47:06;;;;;;;;;;;1.10;99.90;;;;;;5003024;28;19917;-88
2023/10/30 09:49:32;;;;;;;;;;;1.20;99.90;;;;;;5001970;28;19979;-88
2023/10/30 09:52:01;;;;;;;;;;;1.20;99.90;;;;;;5048699;28;19931;-86
2023/10/30 09:54:27;;;;;;;;;;;1.20;99.90;;;;;;5041405;28;19905;-89
2023/10/30 09:56:53;;;;;;;;;;;1.20;99.90;;;;;;5018651;28;19999;-90
2023/10/30 09:59:20;;;;;;;;;;;1.30;99.90;;;;;;5004393;28;19913;-91
2023/10/30 10:01:47;;;;;;;;;;;1.30;99.90;;;;;;5033691;28;19976;-87
2023/10/30 10:04:12;;;;;;;;;;;1.30;99.90;;;;;;5056275;28;19905;-92
2023/10/30 10:06:40;;;;;;;;;;;1.40;99.90;;;;;;5038236;28;19913;-87
2023/10/30 10:09:07;;;;;;;;;;;1.50;99.90;;;;;;5038816;28;19912;-92
2023/10/30 10:11:36;;;;;;;;;;;1.50;99.90;;;;;;5008699;28;19912;-91
2023/10/30 10:14:02;;;;;;;;;;;1.40;99.90;;;;;;5021953;28;20067;-92
2023/10/30 10:16:30;;;;;;;;;;;1.40;99.90;;;;;;5002960;28;20289;-93
2023/10/30 10:18:55;;;;;;;;;;;1.40;99.90;;;;;;5019011;28;19905;-88
2023/10/30 10:21:22;;;;;;;;;;;1.40;99.90;;;;;;5000689;28;19905;-88
2023/10/30 10:23:48;;;;;;;;;;;1.40;99.90;;;;;;5010609;28;19906;-92
2023/10/30 10:26:14;;;;;;;;;;;1.40;99.90;;;;;;5026960;28;19976;-92
2023/10/30 10:28:41;;;;;;;;;;;1.40;99.90;;;;;;5003858;28;19909;-91
2023/10/30 10:31:06;;;;;;;;;;;1.50;99.90;;;;;;5041611;28;19913;-91
2023/10/30 10:33:33;;;;;;;;;;;1.50;99.90;;;;;;5028959;28;19928;-91
2023/10/30 10:36:03;;;;;;;;;;;1.50;99.90;;;;;;5036515;28;19975;-89
2023/10/30 10:38:29;;;;;;;;;;;1.40;99.90;;;;;;5033533;28;19913;-90
2023/10/30 10:40:55;;;;;;;;;;;1.40;99.90;;;;;;5025660;28;19961;-83
2023/10/30 10:43:22;;;;;;;;;;;1.40;99.90;;;;;;5030835;28;19984;-84
2023/10/30 10:45:49;;;;;;;;;;;1.50;99.90;;;;;;5016446;28;19905;-87
2023/10/30 10:48:15;;;;;;;;;;;1.60;99.90;;;;;;5029991;28;19916;-86
2023/10/30 10:50:41;;;;;;;;;;;1.60;99.90;;;;;;5024122;28;19935;-88
2023/10/30 10:53:15;;;;;;;;;;;1.60;99.90;;;;;;4998499;28;19949;-86
2023/10/30 10:55:42;;;;;;;;;;;1.60;99.90;;;;;;4993100;28;20016;-86
2023/10/30 10:58:09;;;;;;;;;;;1.70;99.90;;;;;;5016341;28;19910;-87
2023/10/30 11:00:41;;;;;;;;;;;1.70;99.90;;;;;;5015066;28;19916;-88
2023/10/30 11:03:07;;;;;;;;;;;1.80;99.90;;;;;;5008000;28;19945;-86
2023/10/30 11:05:35;;;;;;;;;;;1.80;99.90;;;;;;5016639;28;19906;-89
2023/10/30 11:08:07;;;;;;;;;;;1.80;99.90;;;;;;4999171;28;19933;-88
2023/10/30 11:10:46;;;;;;;;;;;1.80;99.90;;;;;;4998635;28;19923;-89
2023/10/30 11:13:15;;;;;;;;;;;1.80;99.90;;;;;;4998953;28;19912;-86
2023/10/30 11:15:47;;;;;;;;;;;1.80;99.90;;;;;;4999018;28;19971;-85
2023/10/30 11:18:14;;;;;;;;;;;1.90;99.90;;;;;;4998660;28;19905;-89
2023/10/30 11:20:43;;;;;;;;;;;2.00;99.90;;;;;;5030961;28;19955;-88
2023/10/30 11:23:09;;;;;;;;;;;2.00;99.90;;;;;;5038359;28;20067;-90
2023/10/30 11:26:11;;;;;;;;;;;2.00;99.90;;;;;;5038653;28;19920;-91
2023/10/30 11:28:35;;;;;;;;;;;2.10;99.90;;;;;;5013937;28;20275;-88
2023/10/30 11:31:06;;;;;;;;;;;2.00;99.90;;;;;;5020637;28;19924;-88
2023/10/30 11:33:32;;;;;;;;;;;2.10;99.90;;;;;;5019273;28;19965;-91
2023/10/30 11:36:16;;;;;;;;;;;2.10;99.90;;;;;;5013514;28;20346;-88
2023/10/30 11:39:06;;;;;;;;;;;2.10;99.90;;;;;;4998226;28;20413;-87
2023/10/30 11:41:35;;;;;;;;;;;2.10;99.90;;;;;;5018201;28;19996;-88
2023/10/30 11:44:10;;;;;;;;;;;2.10;99.90;;;;;;4999424;28;19910;-89
2023/10/30 11:46:39;;;;;;;;;;;2.20;99.90;;;;;;5019548;28;19924;-92
2023/10/30 11:49:06;;;;;;;;;;;2.20;99.90;;;;;;5035734;28;19940;-90
2023/10/30 11:51:32;;;;;;;;;;;2.20;99.90;;;;;;5000782;28;19906;-89
2023/10/30 11:53:57;;;;;;;;;;;2.20;99.90;;;;;;5015426;28;19913;-86
2023/10/30 11:56:23;;;;;;;;;;;2.30;99.90;;;;;;5015401;28;19905;-88
2023/10/30 11:58:49;;;;;;;;;;;2.40;99.90;;;;;;4998129;28;20048;-87
2023/10/30 12:01:15;;;;;;;;;;;2.40;99.90;;;;;;5014444;28;20296;-85
2023/10/30 12:03:42;;;;;;;;;;;2.50;99.90;;;;;;5021348;28;19916;-86
2023/10/30 12:06:10;;;;;;;;;;;2.50;99.90;;;;;;5017852;28;19912;-87
2023/10/30 12:08:36;;;;;;;;;;;2.60;99.90;;;;;;5034625;28;20027;-85
2023/10/30 12:11:02;;;;;;;;;;;2.70;99.90;;;;;;5046286;28;20399;-85
2023/10/30 12:13:27;;;;;;;;;;;2.70;99.90;;;;;;5019032;28;19933;-86
2023/10/30 12:15:53;;;;;;;;;;;2.70;99.90;;;;;;5023391;28;19928;-87
2023/10/30 12:18:19;;;;;;;;;;;2.70;99.90;;;;;;5024228;28;19909;-86
2023/10/30 12:20:45;;;;;;;;;;;2.80;99.90;;;;;;5016215;28;20409;-86
2023/10/30 12:23:11;;;;;;;;;;;2.80;99.90;;;;;;5016350;28;19955;-85
2023/10/30 12:25:37;;;;;;;;;;;2.90;99.90;;;;;;5029975;28;19905;-86
2023/10/30 12:28:04;;;;;;;;;;;2.90;99.90;;;;;;5003293;28;20302;-85
2023/10/30 12:30:38;;;;;;;;;;;3.00;99.90;;;;;;4997641;28;20043;-85
2023/10/30 12:33:04;;;;;;;;;;;3.00;99.90;;;;;;5005170;28;19906;-85
2023/10/30 12:35:34;;;;;;;;;;;3.00;99.90;;;;;;5017620;28;20259;-86
2023/10/30 12:37:59;;;;;;;;;;;3.10;99.90;;;;;;5027312;28;19910;-84
2023/10/30 12:40:25;;;;;;;;;;;3.10;99.90;;;;;;5022857;28;19912;-87
2023/10/30 12:42:52;;;;;;;;;;;3.20;99.90;;;;;;5015718;28;19995;-88
2023/10/30 12:45:18;;;;;;;;;;;3.20;99.90;;;;;;5001150;28;19928;-89
2023/10/30 12:47:49;;;;;;;;;;;3.30;99.90;;;;;;5027759;28;19920;-87
2023/10/30 12:50:15;;;;;;;;;;;3.40;99.90;;;;;;5021194;28;20394;-86
2023/10/30 12:52:42;;;;;;;;;;;3.40;99.90;;;;;;5017347;28;19905;-90
2023/10/30 12:55:07;;;;;;;;;;;3.50;99.90;;;;;;5012622;28;20380;-83
2023/10/30 12:57:34;;;;;;;;;;;3.50;99.90;;;;;;5028603;28;19905;-86
2023/10/30 12:59:59;;;;;;;;;;;3.60;99.90;;;;;;5017608;28;19909;-85
2023/10/30 13:02:27;;;;;;;;;;;3.70;99.90;;;;;;4998743;28;19905;-86
2023/10/30 13:04:53;;;;;;;;;;;3.70;99.90;;;;;;5000272;28;19905;-86
2023/10/30 13:07:18;;;;;;;;;;;3.70;99.90;;;;;;5040935;28;19944;-87
2023/10/30 13:09:47;;;;;;;;;;;3.80;99.90;;;;;;5012184;28;19917;-86
2023/10/30 13:12:13;;;;;;;;;;;3.70;99.90;;;;;;5017683;28;19928;-88
2023/10/30 13:14:38;;;;;;;;;;;3.80;99.90;;;;;;5030641;28;19948;-86
2023/10/30 13:17:05;;;;;;;;;;;3.80;99.90;;;;;;5036616;28;19909;-89
2023/10/30 13:19:30;;;;;;;;;;;3.90;99.90;;;;;;5036905;28;19916;-89
2023/10/30 13:21:56;;;;;;;;;;;3.90;99.90;;;;;;5014629;28;19913;-87
2023/10/30 13:24:22;;;;;;;;;;;3.90;99.90;;;;;;5015007;28;19912;-85
2023/10/30 13:26:47;;;;;;;;;;;4.00;99.90;;;;;;5029085;28;19905;-85
2023/10/30 13:29:13;;;;;;;;;;;4.00;99.90;;;;;;5034283;28;20400;-86
2023/10/30 13:31:39;;;;;;;;;;;4.10;99.90;;;;;;5034925;28;19970;-87
2023/10/30 13:34:04;;;;;;;;;;;4.20;99.90;;;;;;5044022;28;19920;-88
2023/10/30 13:36:33;;;;;;;;;;;4.20;99.90;;;;;;5045597;28;19909;-87
2023/10/30 13:38:59;;;;;;;;;;;4.20;99.90;;;;;;5031451;28;20267;-86
2023/10/30 13:41:24;;;;;;;;;;;4.20;99.90;;;;;;5034168;28;19916;-86
2023/10/30 13:43:51;;;;;;;;;;;4.30;99.90;;;;;;5026331;28;19908;-86
2023/10/30 13:46:24;;;;;;;;;;;4.30;99.90;;;;;;5033631;28;19905;-88
2023/10/30 13:48:50;;;;;;;;;;;4.30;99.90;;;;;;5017557;28;20012;-85
2023/10/30 13:51:15;;;;;;;;;;;4.30;99.90;;;;;;5034917;28;20369;-85
2023/10/30 13:53:42;;;;;;;;;;;4.40;99.90;;;;;;5035079;28;19944;-86
2023/10/30 13:56:07;;;;;;;;;;;4.50;99.90;;;;;;5018182;28;19955;-86
2023/10/30 13:58:33;;;;;;;;;;;4.50;99.90;;;;;;5042320;28;19905;-87
2023/10/30 14:01:00;;;;;;;;;;;4.50;99.90;;;;;;5062885;28;19911;-89
2023/10/30 14:03:25;;;;;;;;;;;4.60;99.90;;;;;;5036561;28;20385;-90
2023/10/30 14:05:52;;;;;;;;;;;4.60;99.90;;;;;;5006733;28;19905;-86
2023/10/30 14:08:29;;;;;;;;;;;4.60;99.90;;;;;;5013549;28;19909;-89
2023/10/30 14:10:54;;;;;;;;;;;4.70;99.90;;;;;;5035827;28;19940;-89
2023/10/30 14:13:20;;;;;;;;;;;4.70;99.90;;;;;;5033515;28;19920;-88
2023/10/30 14:15:45;;;;;;;;;;;4.80;99.90;;;;;;5034702;28;19939;-89
2023/10/30 14:18:11;;;;;;;;;;;4.90;99.90;;;;;;5010357;28;19917;-90
2023/10/30 14:20:37;;;;;;;;;;;5.00;99.90;;;;;;5021442;28;19936;-88
2023/10/30 14:23:03;;;;;;;;;;;5.10;99.90;;;;;;5012522;28;19941;-90
2023/10/30 14:25:28;;;;;;;;;;;5.20;99.90;;;;;;5033193;28;19905;-87
2023/10/30 14:27:54;;;;;;;;;;;5.20;99.90;;;;;;5035168;28;19912;-89
2023/10/30 14:30:20;;;;;;;;;;;5.30;99.90;;;;;;5053958;28;19924;-87
2023/10/30 14:32:45;;;;;;;;;;;5.30;99.90;;;;;;5015278;28;19905;-89
2023/10/30 14:35:11;;;;;;;;;;;5.40;99.90;;;;;;5033025;28;19912;-91
2023/10/30 14:37:37;;;;;;;;;;;5.50;99.90;;;;;;5034930;28;19912;-90